sensor_id;sensor_type;location;lat;lon;timestamp;temperature;humidity
2539;DHT22;1280;49.760;9.664;2023-06-22T00:00:36;23.70;76.10
2539;DHT22;1280;49.760;9.664;2023-06-22T00:03:07;23.70;76.10
2539;DHT22;1280;49.760;9.664;2023-06-22T00:05:35;23.70;76.10
2539;DHT22;1280;49.760;9.664;2023-06-22T00:08:03;23.70;76.10
2539;DHT22;1280;49.760;9.664;2023-06-22T00:10:32;23.60;76.40
2539;DHT22;1280;49.760;9.664;2023-06-22T00:13:00;23.60;76.60
2539;DHT22;1280;49.760;9.664;2023-06-22T00:15:28;23.60;76.60
2539;DHT22;1280;49.760;9.664;2023-06-22T00:18:02;23.50;76.80
2539;DHT22;1280;49.760;9.664;2023-06-22T00:20:31;23.50;76.90
2539;DHT22;1280;49.760;9.664;2023-06-22T00:23:04;23.50;77.20
2539;DHT22;1280;49.760;9.664;2023-06-22T00:25:35;23.50;77.40
2539;DHT22;1280;49.760;9.664;2023-06-22T00:28:03;23.50;77.30
2539;DHT22;1280;49.760;9.664;2023-06-22T00:30:34;23.60;77.40
2539;DHT22;1280;49.760;9.664;2023-06-22T00:33:02;23.60;77.30
2539;DHT22;1280;49.760;9.664;2023-06-22T00:35:32;23.60;77.30
2539;DHT22;1280;49.760;9.664;2023-06-22T00:38:00;23.60;77.30
2539;DHT22;1280;49.760;9.664;2023-06-22T00:40:32;23.60;77.40
2539;DHT22;1280;49.760;9.664;2023-06-22T00:43:00;23.60;77.30
2539;DHT22;1280;49.760;9.664;2023-06-22T00:45:28;23.60;77.20
2539;DHT22;1280;49.760;9.664;2023-06-22T00:47:57;23.60;77.10
2539;DHT22;1280;49.760;9.664;2023-06-22T00:50:27;23.60;77.00
2539;DHT22;1280;49.760;9.664;2023-06-22T00:53:04;23.50;77.00
2539;DHT22;1280;49.760;9.664;2023-06-22T00:55:36;23.50;77.20
2539;DHT22;1280;49.760;9.664;2023-06-22T00:58:06;23.40;77.30
2539;DHT22;1280;49.760;9.664;2023-06-22T01:00:39;23.40;77.40
2539;DHT22;1280;49.760;9.664;2023-06-22T01:03:07;23.50;77.40
2539;DHT22;1280;49.760;9.664;2023-06-22T01:05:38;23.50;77.50
2539;DHT22;1280;49.760;9.664;2023-06-22T01:08:17;23.50;77.40
2539;DHT22;1280;49.760;9.664;2023-06-22T01:10:52;23.50;77.30
2539;DHT22;1280;49.760;9.664;2023-06-22T01:13:27;23.40;77.20
2539;DHT22;1280;49.760;9.664;2023-06-22T01:16:00;23.30;77.20
2539;DHT22;1280;49.760;9.664;2023-06-22T01:18:32;23.20;77.40
2539;DHT22;1280;49.760;9.664;2023-06-22T01:21:04;23.20;77.60
2539;DHT22;1280;49.760;9.664;2023-06-22T01:23:54;23.20;77.70
2539;DHT22;1280;49.760;9.664;2023-06-22T01:26:35;23.30;77.70
2539;DHT22;1280;49.760;9.664;2023-06-22T01:29:08;23.30;77.60
2539;DHT22;1280;49.760;9.664;2023-06-22T01:31:41;23.30;77.60
2539;DHT22;1280;49.760;9.664;2023-06-22T01:34:11;23.30;77.60
2539;DHT22;1280;49.760;9.664;2023-06-22T01:36:41;23.30;77.60
2539;DHT22;1280;49.760;9.664;2023-06-22T01:39:11;23.30;77.40
2539;DHT22;1280;49.760;9.664;2023-06-22T01:41:41;23.20;77.40
2539;DHT22;1280;49.760;9.664;2023-06-22T01:44:12;23.20;77.70
2539;DHT22;1280;49.760;9.664;2023-06-22T01:46:41;23.20;77.90
2539;DHT22;1280;49.760;9.664;2023-06-22T01:49:09;23.20;78.00
2539;DHT22;1280;49.760;9.664;2023-06-22T01:51:38;23.20;78.10
2539;DHT22;1280;49.760;9.664;2023-06-22T01:54:06;23.30;78.20
2539;DHT22;1280;49.760;9.664;2023-06-22T01:56:35;23.30;78.30
2539;DHT22;1280;49.760;9.664;2023-06-22T01:59:09;23.30;78.50
2539;DHT22;1280;49.760;9.664;2023-06-22T02:01:43;23.40;78.60
2539;DHT22;1280;49.760;9.664;2023-06-22T02:04:14;23.40;78.80
2539;DHT22;1280;49.760;9.664;2023-06-22T02:10:58;23.40;79.10
2539;DHT22;1280;49.760;9.664;2023-06-22T02:13:28;23.40;79.20
2539;DHT22;1280;49.760;9.664;2023-06-22T02:15:57;23.40;79.30
2539;DHT22;1280;49.760;9.664;2023-06-22T02:18:26;23.40;79.30
2539;DHT22;1280;49.760;9.664;2023-06-22T02:20:54;23.20;79.50
2539;DHT22;1280;49.760;9.664;2023-06-22T02:23:22;22.90;80.00
2539;DHT22;1280;49.760;9.664;2023-06-22T02:25:50;22.70;80.80
2539;DHT22;1280;49.760;9.664;2023-06-22T02:28:20;22.60;81.30
2539;DHT22;1280;49.760;9.664;2023-06-22T02:30:48;22.40;81.80
2539;DHT22;1280;49.760;9.664;2023-06-22T02:33:18;22.40;82.10
2539;DHT22;1280;49.760;9.664;2023-06-22T02:35:48;22.40;82.30
2539;DHT22;1280;49.760;9.664;2023-06-22T02:38:16;22.50;82.30
2539;DHT22;1280;49.760;9.664;2023-06-22T02:40:46;22.50;82.30
2539;DHT22;1280;49.760;9.664;2023-06-22T02:43:14;22.60;82.20
2539;DHT22;1280;49.760;9.664;2023-06-22T02:45:43;22.60;82.10
2539;DHT22;1280;49.760;9.664;2023-06-22T02:48:11;22.70;82.10
2539;DHT22;1280;49.760;9.664;2023-06-22T02:50:39;22.70;82.10
2539;DHT22;1280;49.760;9.664;2023-06-22T02:53:08;22.80;81.90
2539;DHT22;1280;49.760;9.664;2023-06-22T02:55:40;22.80;81.90
2539;DHT22;1280;49.760;9.664;2023-06-22T02:58:08;22.80;81.80
2539;DHT22;1280;49.760;9.664;2023-06-22T03:00:37;22.80;81.80
2539;DHT22;1280;49.760;9.664;2023-06-22T03:03:06;22.90;81.80
2539;DHT22;1280;49.760;9.664;2023-06-22T03:05:34;22.90;81.80
2539;DHT22;1280;49.760;9.664;2023-06-22T03:08:03;23.00;81.80
2539;DHT22;1280;49.760;9.664;2023-06-22T03:10:34;23.10;81.60
2539;DHT22;1280;49.760;9.664;2023-06-22T03:13:03;23.20;81.60
2539;DHT22;1280;49.760;9.664;2023-06-22T03:15:30;23.20;81.40
2539;DHT22;1280;49.760;9.664;2023-06-22T03:18:00;23.20;81.40
2539;DHT22;1280;49.760;9.664;2023-06-22T03:20:28;23.20;81.50
2539;DHT22;1280;49.760;9.664;2023-06-22T03:23:00;23.20;81.30
2539;DHT22;1280;49.760;9.664;2023-06-22T03:25:28;23.30;81.30
2539;DHT22;1280;49.760;9.664;2023-06-22T03:28:13;23.30;81.20
2539;DHT22;1280;49.760;9.664;2023-06-22T03:30:41;23.30;81.20
2539;DHT22;1280;49.760;9.664;2023-06-22T03:33:08;23.30;81.20
2539;DHT22;1280;49.760;9.664;2023-06-22T03:35:36;23.30;81.10
2539;DHT22;1280;49.760;9.664;2023-06-22T03:38:05;23.40;81.00
2539;DHT22;1280;49.760;9.664;2023-06-22T03:40:33;23.40;81.00
2539;DHT22;1280;49.760;9.664;2023-06-22T03:43:01;23.40;81.00
2539;DHT22;1280;49.760;9.664;2023-06-22T03:45:30;23.40;81.00
2539;DHT22;1280;49.760;9.664;2023-06-22T03:47:58;23.40;81.00
2539;DHT22;1280;49.760;9.664;2023-06-22T03:50:27;23.40;81.00
2539;DHT22;1280;49.760;9.664;2023-06-22T03:53:00;23.40;81.00
2539;DHT22;1280;49.760;9.664;2023-06-22T03:55:28;23.40;81.00
2539;DHT22;1280;49.760;9.664;2023-06-22T03:57:57;23.40;80.90
2539;DHT22;1280;49.760;9.664;2023-06-22T04:00:25;23.40;80.90
2539;DHT22;1280;49.760;9.664;2023-06-22T04:02:54;23.40;80.90
2539;DHT22;1280;49.760;9.664;2023-06-22T04:05:22;23.40;81.00
2539;DHT22;1280;49.760;9.664;2023-06-22T04:07:51;23.40;81.00
2539;DHT22;1280;49.760;9.664;2023-06-22T04:10:21;23.40;81.00
2539;DHT22;1280;49.760;9.664;2023-06-22T04:12:49;23.40;81.10
2539;DHT22;1280;49.760;9.664;2023-06-22T04:15:17;23.40;80.90
2539;DHT22;1280;49.760;9.664;2023-06-22T04:17:45;23.40;80.90
2539;DHT22;1280;49.760;9.664;2023-06-22T04:20:14;23.40;80.90
2539;DHT22;1280;49.760;9.664;2023-06-22T04:22:42;23.50;80.90
2539;DHT22;1280;49.760;9.664;2023-06-22T04:25:10;23.50;80.80
2539;DHT22;1280;49.760;9.664;2023-06-22T04:27:38;23.50;80.80
2539;DHT22;1280;49.760;9.664;2023-06-22T04:30:08;23.50;80.80
2539;DHT22;1280;49.760;9.664;2023-06-22T04:32:36;23.60;80.80
2539;DHT22;1280;49.760;9.664;2023-06-22T04:35:05;23.60;80.80
2539;DHT22;1280;49.760;9.664;2023-06-22T04:37:34;23.70;80.70
2539;DHT22;1280;49.760;9.664;2023-06-22T04:40:02;23.70;80.60
2539;DHT22;1280;49.760;9.664;2023-06-22T04:42:34;23.80;80.60
2539;DHT22;1280;49.760;9.664;2023-06-22T04:45:03;23.80;80.50
2539;DHT22;1280;49.760;9.664;2023-06-22T04:47:31;23.80;80.50
2539;DHT22;1280;49.760;9.664;2023-06-22T04:49:59;23.90;80.40
2539;DHT22;1280;49.760;9.664;2023-06-22T04:52:33;23.90;80.30
2539;DHT22;1280;49.760;9.664;2023-06-22T04:55:01;23.90;80.40
2539;DHT22;1280;49.760;9.664;2023-06-22T04:57:30;24.00;80.50
2539;DHT22;1280;49.760;9.664;2023-06-22T04:59:59;24.10;80.50
2539;DHT22;1280;49.760;9.664;2023-06-22T05:02:38;24.20;80.30
2539;DHT22;1280;49.760;9.664;2023-06-22T05:05:07;24.30;80.30
2539;DHT22;1280;49.760;9.664;2023-06-22T05:07:42;24.40;80.20
2539;DHT22;1280;49.760;9.664;2023-06-22T05:10:11;24.50;80.00
2539;DHT22;1280;49.760;9.664;2023-06-22T05:12:42;24.60;80.00
2539;DHT22;1280;49.760;9.664;2023-06-22T05:15:10;24.70;79.80
2539;DHT22;1280;49.760;9.664;2023-06-22T05:17:38;24.80;79.70
2539;DHT22;1280;49.760;9.664;2023-06-22T05:20:10;24.90;79.50
2539;DHT22;1280;49.760;9.664;2023-06-22T05:22:40;25.00;79.40
2539;DHT22;1280;49.760;9.664;2023-06-22T05:25:10;25.10;79.30
2539;DHT22;1280;49.760;9.664;2023-06-22T05:27:39;25.20;78.90
2539;DHT22;1280;49.760;9.664;2023-06-22T05:30:08;25.30;79.00
2539;DHT22;1280;49.760;9.664;2023-06-22T05:32:36;25.40;78.80
2539;DHT22;1280;49.760;9.664;2023-06-22T05:35:04;25.50;78.60
2539;DHT22;1280;49.760;9.664;2023-06-22T05:37:32;25.60;78.50
2539;DHT22;1280;49.760;9.664;2023-06-22T05:40:02;25.70;78.60
2539;DHT22;1280;49.760;9.664;2023-06-22T05:42:30;25.90;78.70
2539;DHT22;1280;49.760;9.664;2023-06-22T05:44:58;26.30;78.10
2539;DHT22;1280;49.760;9.664;2023-06-22T05:47:27;26.90;77.00
2539;DHT22;1280;49.760;9.664;2023-06-22T05:49:55;27.50;75.70
2539;DHT22;1280;49.760;9.664;2023-06-22T05:52:23;28.00;74.40
2539;DHT22;1280;49.760;9.664;2023-06-22T05:54:51;28.50;73.60
2539;DHT22;1280;49.760;9.664;2023-06-22T05:57:20;28.90;72.80
2539;DHT22;1280;49.760;9.664;2023-06-22T05:59:48;29.20;72.20
2539;DHT22;1280;49.760;9.664;2023-06-22T06:02:17;29.60;71.40
2539;DHT22;1280;49.760;9.664;2023-06-22T06:04:46;29.80;70.50
2539;DHT22;1280;49.760;9.664;2023-06-22T06:07:14;30.00;70.00
2539;DHT22;1280;49.760;9.664;2023-06-22T06:09:42;30.10;69.30
2539;DHT22;1280;49.760;9.664;2023-06-22T06:12:10;30.10;68.80
2539;DHT22;1280;49.760;9.664;2023-06-22T06:14:39;29.90;68.50
2539;DHT22;1280;49.760;9.664;2023-06-22T06:17:09;29.60;68.50
2539;DHT22;1280;49.760;9.664;2023-06-22T06:19:37;29.20;68.90
2539;DHT22;1280;49.760;9.664;2023-06-22T06:22:05;28.90;69.10
2539;DHT22;1280;49.760;9.664;2023-06-22T06:24:33;28.50;69.60
2539;DHT22;1280;49.760;9.664;2023-06-22T06:27:01;28.20;70.00
2539;DHT22;1280;49.760;9.664;2023-06-22T06:29:31;27.90;70.40
2539;DHT22;1280;49.760;9.664;2023-06-22T06:32:01;27.70;70.80
2539;DHT22;1280;49.760;9.664;2023-06-22T06:34:47;27.40;71.00
2539;DHT22;1280;49.760;9.664;2023-06-22T06:37:17;27.10;71.30
2539;DHT22;1280;49.760;9.664;2023-06-22T06:39:45;26.80;71.80
2539;DHT22;1280;49.760;9.664;2023-06-22T06:42:13;26.60;72.20
2539;DHT22;1280;49.760;9.664;2023-06-22T06:44:41;26.50;72.60
2539;DHT22;1280;49.760;9.664;2023-06-22T06:47:10;26.40;72.90
2539;DHT22;1280;49.760;9.664;2023-06-22T06:49:38;26.30;73.30
2539;DHT22;1280;49.760;9.664;2023-06-22T06:52:07;26.30;73.60
2539;DHT22;1280;49.760;9.664;2023-06-22T06:54:35;26.30;73.80
2539;DHT22;1280;49.760;9.664;2023-06-22T06:57:03;26.20;73.80
2539;DHT22;1280;49.760;9.664;2023-06-22T06:59:31;26.20;74.00
2539;DHT22;1280;49.760;9.664;2023-06-22T07:01:59;26.10;74.10
2539;DHT22;1280;49.760;9.664;2023-06-22T07:04:29;26.10;74.20
2539;DHT22;1280;49.760;9.664;2023-06-22T07:07:00;26.00;74.50
2539;DHT22;1280;49.760;9.664;2023-06-22T07:09:29;26.00;74.70
2539;DHT22;1280;49.760;9.664;2023-06-22T07:11:57;26.00;74.80
2539;DHT22;1280;49.760;9.664;2023-06-22T07:14:24;26.00;75.00
2539;DHT22;1280;49.760;9.664;2023-06-22T07:16:52;26.00;75.10
2539;DHT22;1280;49.760;9.664;2023-06-22T07:19:24;26.00;75.10
2539;DHT22;1280;49.760;9.664;2023-06-22T07:21:55;26.00;75.30
2539;DHT22;1280;49.760;9.664;2023-06-22T07:24:23;26.00;75.40
2539;DHT22;1280;49.760;9.664;2023-06-22T07:26:51;26.00;75.50
2539;DHT22;1280;49.760;9.664;2023-06-22T07:29:20;26.00;75.60
2539;DHT22;1280;49.760;9.664;2023-06-22T07:31:50;26.10;75.60
2539;DHT22;1280;49.760;9.664;2023-06-22T07:34:18;26.10;75.50
2539;DHT22;1280;49.760;9.664;2023-06-22T07:36:47;26.10;75.40
2539;DHT22;1280;49.760;9.664;2023-06-22T07:39:16;26.20;75.30
2539;DHT22;1280;49.760;9.664;2023-06-22T07:41:44;26.20;75.30
2539;DHT22;1280;49.760;9.664;2023-06-22T07:44:12;26.20;75.20
2539;DHT22;1280;49.760;9.664;2023-06-22T07:46:40;26.20;75.30
2539;DHT22;1280;49.760;9.664;2023-06-22T07:49:08;26.20;75.30
2539;DHT22;1280;49.760;9.664;2023-06-22T07:51:36;26.20;75.30
2539;DHT22;1280;49.760;9.664;2023-06-22T07:54:05;26.20;75.30
2539;DHT22;1280;49.760;9.664;2023-06-22T07:56:36;26.20;75.20
2539;DHT22;1280;49.760;9.664;2023-06-22T07:59:05;26.30;75.10
2539;DHT22;1280;49.760;9.664;2023-06-22T08:01:33;26.30;75.10
2539;DHT22;1280;49.760;9.664;2023-06-22T08:04:01;26.30;75.10
2539;DHT22;1280;49.760;9.664;2023-06-22T08:06:30;26.40;75.00
2539;DHT22;1280;49.760;9.664;2023-06-22T08:08:57;26.40;74.90
2539;DHT22;1280;49.760;9.664;2023-06-22T08:11:26;26.40;75.00
2539;DHT22;1280;49.760;9.664;2023-06-22T08:13:55;26.50;74.80
2539;DHT22;1280;49.760;9.664;2023-06-22T08:16:25;26.50;74.70
2539;DHT22;1280;49.760;9.664;2023-06-22T08:18:54;26.50;74.40
2539;DHT22;1280;49.760;9.664;2023-06-22T08:21:22;26.60;74.40
2539;DHT22;1280;49.760;9.664;2023-06-22T08:23:50;26.60;74.20
2539;DHT22;1280;49.760;9.664;2023-06-22T08:26:19;26.60;74.20
2539;DHT22;1280;49.760;9.664;2023-06-22T08:28:47;26.60;74.10
2539;DHT22;1280;49.760;9.664;2023-06-22T08:31:18;26.70;74.10
2539;DHT22;1280;49.760;9.664;2023-06-22T08:33:46;26.70;74.00
2539;DHT22;1280;49.760;9.664;2023-06-22T08:36:16;26.80;73.80
2539;DHT22;1280;49.760;9.664;2023-06-22T08:38:44;26.80;73.60
2539;DHT22;1280;49.760;9.664;2023-06-22T08:41:16;26.80;73.50
2539;DHT22;1280;49.760;9.664;2023-06-22T08:43:44;26.80;73.40
2539;DHT22;1280;49.760;9.664;2023-06-22T08:46:12;26.90;73.20
2539;DHT22;1280;49.760;9.664;2023-06-22T08:48:41;26.90;73.00
2539;DHT22;1280;49.760;9.664;2023-06-22T08:51:09;26.90;72.90
2539;DHT22;1280;49.760;9.664;2023-06-22T08:53:37;27.00;72.80
2539;DHT22;1280;49.760;9.664;2023-06-22T08:56:05;27.00;72.70
2539;DHT22;1280;49.760;9.664;2023-06-22T08:58:33;27.10;72.40
2539;DHT22;1280;49.760;9.664;2023-06-22T09:01:01;27.10;72.20
2539;DHT22;1280;49.760;9.664;2023-06-22T09:03:29;27.20;72.10
2539;DHT22;1280;49.760;9.664;2023-06-22T09:06:22;27.20;71.90
2539;DHT22;1280;49.760;9.664;2023-06-22T09:08:50;27.30;71.70
2539;DHT22;1280;49.760;9.664;2023-06-22T09:11:18;27.30;71.70
2539;DHT22;1280;49.760;9.664;2023-06-22T09:13:46;27.30;71.50
2539;DHT22;1280;49.760;9.664;2023-06-22T09:16:14;27.30;71.40
2539;DHT22;1280;49.760;9.664;2023-06-22T09:18:42;27.40;71.40
2539;DHT22;1280;49.760;9.664;2023-06-22T09:21:10;27.40;71.30
2539;DHT22;1280;49.760;9.664;2023-06-22T09:23:39;27.40;71.20
2539;DHT22;1280;49.760;9.664;2023-06-22T09:26:09;27.50;71.10
2539;DHT22;1280;49.760;9.664;2023-06-22T09:28:37;27.40;71.00
2539;DHT22;1280;49.760;9.664;2023-06-22T09:31:05;27.50;71.10
2539;DHT22;1280;49.760;9.664;2023-06-22T09:33:33;27.60;71.10
2539;DHT22;1280;49.760;9.664;2023-06-22T09:36:02;27.70;70.90
2539;DHT22;1280;49.760;9.664;2023-06-22T09:38:30;27.80;70.60
2539;DHT22;1280;49.760;9.664;2023-06-22T09:40:59;27.90;70.50
2539;DHT22;1280;49.760;9.664;2023-06-22T09:43:27;28.00;70.20
2539;DHT22;1280;49.760;9.664;2023-06-22T09:45:55;28.10;70.10
2539;DHT22;1280;49.760;9.664;2023-06-22T09:48:23;28.10;69.90
2539;DHT22;1280;49.760;9.664;2023-06-22T09:50:51;28.20;69.80
2539;DHT22;1280;49.760;9.664;2023-06-22T09:53:19;28.20;69.50
2539;DHT22;1280;49.760;9.664;2023-06-22T09:55:47;28.20;69.40
2539;DHT22;1280;49.760;9.664;2023-06-22T09:58:17;28.30;69.30
2539;DHT22;1280;49.760;9.664;2023-06-22T10:00:46;28.40;69.00
2539;DHT22;1280;49.760;9.664;2023-06-22T10:03:14;28.40;68.80
2539;DHT22;1280;49.760;9.664;2023-06-22T10:05:42;28.40;68.60
2539;DHT22;1280;49.760;9.664;2023-06-22T10:08:13;28.40;68.40
2539;DHT22;1280;49.760;9.664;2023-06-22T10:10:41;28.50;68.10
2539;DHT22;1280;49.760;9.664;2023-06-22T10:13:10;28.50;68.10
2539;DHT22;1280;49.760;9.664;2023-06-22T10:15:39;28.60;67.80
2539;DHT22;1280;49.760;9.664;2023-06-22T10:18:07;28.70;67.60
2539;DHT22;1280;49.760;9.664;2023-06-22T10:20:35;28.70;67.50
2539;DHT22;1280;49.760;9.664;2023-06-22T10:23:03;28.70;67.40
2539;DHT22;1280;49.760;9.664;2023-06-22T10:25:31;28.80;67.30
2539;DHT22;1280;49.760;9.664;2023-06-22T10:27:59;28.80;67.20
2539;DHT22;1280;49.760;9.664;2023-06-22T10:30:27;28.80;66.90
2539;DHT22;1280;49.760;9.664;2023-06-22T10:32:57;28.90;67.00
2539;DHT22;1280;49.760;9.664;2023-06-22T10:35:25;29.00;66.80
2539;DHT22;1280;49.760;9.664;2023-06-22T10:37:55;29.00;66.40
2539;DHT22;1280;49.760;9.664;2023-06-22T10:40:23;29.10;66.10
2539;DHT22;1280;49.760;9.664;2023-06-22T10:42:51;29.20;65.70
2539;DHT22;1280;49.760;9.664;2023-06-22T10:45:19;29.30;65.50
2539;DHT22;1280;49.760;9.664;2023-06-22T10:47:47;29.30;65.20
2539;DHT22;1280;49.760;9.664;2023-06-22T10:50:18;29.40;65.10
2539;DHT22;1280;49.760;9.664;2023-06-22T10:52:46;29.40;65.00
2539;DHT22;1280;49.760;9.664;2023-06-22T10:55:14;29.50;64.90
2539;DHT22;1280;49.760;9.664;2023-06-22T10:57:42;29.50;64.50
2539;DHT22;1280;49.760;9.664;2023-06-22T11:00:14;29.60;64.10
2539;DHT22;1280;49.760;9.664;2023-06-22T11:02:43;29.60;63.80
2539;DHT22;1280;49.760;9.664;2023-06-22T11:05:11;29.60;63.50
2539;DHT22;1280;49.760;9.664;2023-06-22T11:07:42;29.60;63.50
2539;DHT22;1280;49.760;9.664;2023-06-22T11:10:13;29.70;63.60
2539;DHT22;1280;49.760;9.664;2023-06-22T11:12:41;29.70;63.70
2539;DHT22;1280;49.760;9.664;2023-06-22T11:23:30;29.90;63.30
2539;DHT22;1280;49.760;9.664;2023-06-22T11:25:58;30.00;63.30
2539;DHT22;1280;49.760;9.664;2023-06-22T11:28:26;30.10;63.00
2539;DHT22;1280;49.760;9.664;2023-06-22T11:30:54;30.10;62.70
2539;DHT22;1280;49.760;9.664;2023-06-22T11:33:23;30.10;62.70
2539;DHT22;1280;49.760;9.664;2023-06-22T11:35:51;30.20;62.50
2539;DHT22;1280;49.760;9.664;2023-06-22T11:38:19;30.20;62.40
2539;DHT22;1280;49.760;9.664;2023-06-22T11:40:48;30.30;62.00
2539;DHT22;1280;49.760;9.664;2023-06-22T11:43:16;30.30;61.90
2539;DHT22;1280;49.760;9.664;2023-06-22T11:45:44;30.30;61.70
2539;DHT22;1280;49.760;9.664;2023-06-22T11:48:12;30.30;61.70
2539;DHT22;1280;49.760;9.664;2023-06-22T11:50:40;30.40;61.80
2539;DHT22;1280;49.760;9.664;2023-06-22T11:53:08;30.50;61.80
2539;DHT22;1280;49.760;9.664;2023-06-22T11:55:36;30.50;61.50
2539;DHT22;1280;49.760;9.664;2023-06-22T11:58:05;30.50;61.40
2539;DHT22;1280;49.760;9.664;2023-06-22T12:00:33;30.60;61.20
2539;DHT22;1280;49.760;9.664;2023-06-22T12:03:16;30.60;61.20
2539;DHT22;1280;49.760;9.664;2023-06-22T12:05:44;30.70;61.40
2539;DHT22;1280;49.760;9.664;2023-06-22T12:08:12;30.70;61.40
2539;DHT22;1280;49.760;9.664;2023-06-22T12:10:41;30.70;61.20
2539;DHT22;1280;49.760;9.664;2023-06-22T12:13:10;30.70;61.10
2539;DHT22;1280;49.760;9.664;2023-06-22T12:15:38;30.70;61.00
2539;DHT22;1280;49.760;9.664;2023-06-22T12:18:06;30.70;61.20
2539;DHT22;1280;49.760;9.664;2023-06-22T12:20:35;30.70;61.00
2539;DHT22;1280;49.760;9.664;2023-06-22T12:23:03;30.60;61.00
2539;DHT22;1280;49.760;9.664;2023-06-22T12:25:31;30.60;61.10
2539;DHT22;1280;49.760;9.664;2023-06-22T12:27:59;30.60;61.20
2539;DHT22;1280;49.760;9.664;2023-06-22T12:30:29;30.70;61.30
2539;DHT22;1280;49.760;9.664;2023-06-22T12:33:03;30.70;61.30
2539;DHT22;1280;49.760;9.664;2023-06-22T12:35:31;30.70;61.20
2539;DHT22;1280;49.760;9.664;2023-06-22T12:37:59;30.70;61.10
2539;DHT22;1280;49.760;9.664;2023-06-22T12:40:27;30.70;61.00
2539;DHT22;1280;49.760;9.664;2023-06-22T12:42:55;30.80;61.00
2539;DHT22;1280;49.760;9.664;2023-06-22T12:45:23;30.80;60.70
2539;DHT22;1280;49.760;9.664;2023-06-22T12:47:56;30.90;60.60
2539;DHT22;1280;49.760;9.664;2023-06-22T12:50:25;30.90;60.40
2539;DHT22;1280;49.760;9.664;2023-06-22T12:52:53;30.90;60.40
2539;DHT22;1280;49.760;9.664;2023-06-22T12:55:21;30.90;60.40
2539;DHT22;1280;49.760;9.664;2023-06-22T12:57:49;30.90;60.40
2539;DHT22;1280;49.760;9.664;2023-06-22T13:00:17;30.90;60.30
2539;DHT22;1280;49.760;9.664;2023-06-22T13:02:47;30.90;60.30
2539;DHT22;1280;49.760;9.664;2023-06-22T13:05:17;30.90;60.40
2539;DHT22;1280;49.760;9.664;2023-06-22T13:07:50;30.80;60.60
2539;DHT22;1280;49.760;9.664;2023-06-22T13:10:18;30.80;60.80
2539;DHT22;1280;49.760;9.664;2023-06-22T13:12:46;30.80;60.80
2539;DHT22;1280;49.760;9.664;2023-06-22T13:15:14;30.80;61.10
2539;DHT22;1280;49.760;9.664;2023-06-22T13:17:43;30.70;61.60
2539;DHT22;1280;49.760;9.664;2023-06-22T13:20:11;30.70;61.70
2539;DHT22;1280;49.760;9.664;2023-06-22T13:22:41;30.70;61.70
2539;DHT22;1280;49.760;9.664;2023-06-22T13:25:10;30.70;62.20
2539;DHT22;1280;49.760;9.664;2023-06-22T13:27:40;30.70;62.60
2539;DHT22;1280;49.760;9.664;2023-06-22T13:30:08;30.70;62.70
2539;DHT22;1280;49.760;9.664;2023-06-22T13:32:41;30.70;62.80
2539;DHT22;1280;49.760;9.664;2023-06-22T13:35:12;30.70;62.90
2539;DHT22;1280;49.760;9.664;2023-06-22T13:37:41;30.70;63.00
2539;DHT22;1280;49.760;9.664;2023-06-22T13:40:09;30.70;63.10
2539;DHT22;1280;49.760;9.664;2023-06-22T13:42:37;30.70;63.20
2539;DHT22;1280;49.760;9.664;2023-06-22T13:45:07;30.70;63.20
2539;DHT22;1280;49.760;9.664;2023-06-22T13:47:36;30.70;63.20
2539;DHT22;1280;49.760;9.664;2023-06-22T13:50:05;30.70;63.00
2539;DHT22;1280;49.760;9.664;2023-06-22T13:52:35;30.80;62.90
2539;DHT22;1280;49.760;9.664;2023-06-22T13:55:05;30.80;62.80
2539;DHT22;1280;49.760;9.664;2023-06-22T13:57:33;30.80;62.80
2539;DHT22;1280;49.760;9.664;2023-06-22T14:00:01;30.80;62.70
2539;DHT22;1280;49.760;9.664;2023-06-22T14:02:37;30.80;62.60
2539;DHT22;1280;49.760;9.664;2023-06-22T14:05:05;30.80;62.50
2539;DHT22;1280;49.760;9.664;2023-06-22T14:07:33;30.80;62.60
2539;DHT22;1280;49.760;9.664;2023-06-22T14:10:01;30.80;62.60
2539;DHT22;1280;49.760;9.664;2023-06-22T14:12:30;30.80;62.70
2539;DHT22;1280;49.760;9.664;2023-06-22T14:14:59;30.80;63.00
2539;DHT22;1280;49.760;9.664;2023-06-22T14:17:27;30.70;63.40
2539;DHT22;1280;49.760;9.664;2023-06-22T14:19:55;30.70;64.00
2539;DHT22;1280;49.760;9.664;2023-06-22T14:22:23;30.70;64.30
2539;DHT22;1280;49.760;9.664;2023-06-22T14:24:52;30.70;64.50
2539;DHT22;1280;49.760;9.664;2023-06-22T14:27:20;30.70;64.60
2539;DHT22;1280;49.760;9.664;2023-06-22T14:29:49;30.80;64.70
2539;DHT22;1280;49.760;9.664;2023-06-22T14:32:17;30.80;64.70
2539;DHT22;1280;49.760;9.664;2023-06-22T14:34:45;30.90;64.80
2539;DHT22;1280;49.760;9.664;2023-06-22T14:37:13;30.90;64.80
2539;DHT22;1280;49.760;9.664;2023-06-22T14:39:41;31.00;64.70
2539;DHT22;1280;49.760;9.664;2023-06-22T14:42:09;31.20;64.20
2539;DHT22;1280;49.760;9.664;2023-06-22T14:44:38;31.20;63.80
2539;DHT22;1280;49.760;9.664;2023-06-22T14:47:08;31.30;63.80
2539;DHT22;1280;49.760;9.664;2023-06-22T14:49:36;31.40;63.60
2539;DHT22;1280;49.760;9.664;2023-06-22T14:52:04;31.50;63.30
2539;DHT22;1280;49.760;9.664;2023-06-22T14:54:33;31.60;63.10
2539;DHT22;1280;49.760;9.664;2023-06-22T14:57:01;31.60;63.00
2539;DHT22;1280;49.760;9.664;2023-06-22T14:59:29;31.70;62.90
2539;DHT22;1280;49.760;9.664;2023-06-22T15:01:57;31.70;62.70
2539;DHT22;1280;49.760;9.664;2023-06-22T15:04:26;31.80;62.50
2539;DHT22;1280;49.760;9.664;2023-06-22T15:06:58;31.90;62.30
2539;DHT22;1280;49.760;9.664;2023-06-22T15:09:26;31.90;62.00
2539;DHT22;1280;49.760;9.664;2023-06-22T15:11:54;32.00;61.90
2539;DHT22;1280;49.760;9.664;2023-06-22T15:14:22;32.00;61.80
2539;DHT22;1280;49.760;9.664;2023-06-22T15:16:51;32.00;61.70
2539;DHT22;1280;49.760;9.664;2023-06-22T15:19:19;32.00;61.50
2539;DHT22;1280;49.760;9.664;2023-06-22T15:21:48;31.90;61.60
2539;DHT22;1280;49.760;9.664;2023-06-22T15:24:16;31.80;61.50
2539;DHT22;1280;49.760;9.664;2023-06-22T15:26:44;31.80;61.30
2539;DHT22;1280;49.760;9.664;2023-06-22T15:29:12;31.70;61.30
2539;DHT22;1280;49.760;9.664;2023-06-22T15:39:20;31.60;61.10
2539;DHT22;1280;49.760;9.664;2023-06-22T15:46:09;31.50;60.90
2539;DHT22;1280;49.760;9.664;2023-06-22T15:48:37;31.40;60.50
2539;DHT22;1280;49.760;9.664;2023-06-22T15:51:05;31.30;59.80
2539;DHT22;1280;49.760;9.664;2023-06-22T15:53:34;31.20;59.60
2539;DHT22;1280;49.760;9.664;2023-06-22T15:56:03;31.20;58.90
2539;DHT22;1280;49.760;9.664;2023-06-22T15:58:35;31.10;58.70
2539;DHT22;1280;49.760;9.664;2023-06-22T16:01:05;31.00;58.60
2539;DHT22;1280;49.760;9.664;2023-06-22T16:03:33;30.90;58.30
2539;DHT22;1280;49.760;9.664;2023-06-22T16:06:01;30.90;58.30
2539;DHT22;1280;49.760;9.664;2023-06-22T16:08:29;30.80;58.30
2539;DHT22;1280;49.760;9.664;2023-06-22T16:10:58;30.70;58.40
2539;DHT22;1280;49.760;9.664;2023-06-22T16:13:28;30.60;58.30
2539;DHT22;1280;49.760;9.664;2023-06-22T16:15:56;30.60;58.30
2539;DHT22;1280;49.760;9.664;2023-06-22T16:18:23;30.50;58.50
2539;DHT22;1280;49.760;9.664;2023-06-22T16:20:51;30.50;58.70
2539;DHT22;1280;49.760;9.664;2023-06-22T16:23:19;30.40;59.00
2539;DHT22;1280;49.760;9.664;2023-06-22T16:25:47;30.40;59.50
2539;DHT22;1280;49.760;9.664;2023-06-22T16:28:15;30.40;59.90
2539;DHT22;1280;49.760;9.664;2023-06-22T16:30:45;30.30;60.30
2539;DHT22;1280;49.760;9.664;2023-06-22T16:33:13;30.30;60.60
2539;DHT22;1280;49.760;9.664;2023-06-22T16:35:48;30.20;60.80
2539;DHT22;1280;49.760;9.664;2023-06-22T16:38:16;30.20;61.00